Time;durP1;ratioP1;P1;durP2;ratioP2;P2;SDS_P1;SDS_P2;PMS_P1;PMS_P2;Temp;Humidity;BMP_temperature;BMP_pressure;BME280_temperature;BME280_humidity;BME280_pressure;Samples;Min_cycle;Max_cycle;Signal;HPM_P1;HPM_P2
2022/04/27 00:00:49;;;;;;;27.03;9.88;;;;;;;7.56;62.29;100792.52;709621;1184;115653;-75
2022/04/27 00:15:53;;;;;;;12.95;5.90;;;;;;;7.44;62.58;100789.81;709340;1183;115631;-75
2022/04/27 00:30:56;;;;;;;26.33;10.93;;;;;;;7.19;62.59;100808.02;709751;1181;114555;-75
2022/04/27 00:46:00;;;;;;;22.75;9.50;;;;;;;7.07;63.23;100820.92;709576;1183;114900;-75
2022/04/27 01:01:03;;;;;;;24.30;9.00;;;;;;;6.87;63.41;100822.20;709619;1184;115533;-75
2022/04/27 01:16:08;;;;;;;36.93;14.40;;;;;;;6.66;63.95;100830.48;709578;1182;114475;-75
2022/04/27 01:31:14;;;;;;;8.90;4.47;;;;;;;6.41;64.98;100825.11;709561;1182;115567;-75
2022/04/27 01:46:17;;;;;;;29.80;10.75;;;;;;;6.42;64.81;100839.82;709168;1182;114895;-75
2022/04/27 02:01:25;;;;;;;13.40;4.80;;;;;;;6.03;65.53;100852.59;709526;1183;115482;-76
2022/04/27 02:16:29;;;;;;;10.30;5.30;;;;;;;5.96;66.79;100854.66;709632;1182;115596;-76
2022/04/27 02:31:33;;;;;;;8.80;4.40;;;;;;;5.78;66.30;100854.00;709613;1182;114748;-75
2022/04/27 02:46:39;;;;;;;17.70;6.80;;;;;;;5.48;67.39;100856.63;709638;1182;115024;-74
2022/04/27 03:01:43;;;;;;;11.97;5.70;;;;;;;5.19;68.37;100873.88;709429;1183;114485;-76
2022/04/27 03:16:52;;;;;;;12.20;6.60;;;;;;;5.22;68.89;100890.16;709798;1181;115365;-76
2022/04/27 03:31:56;;;;;;;11.50;5.05;;;;;;;5.23;69.54;100896.22;709509;1184;114067;-77
2022/04/27 03:46:59;;;;;;;11.70;5.80;;;;;;;5.52;70.28;100914.52;709435;1182;115545;-75
2022/04/27 04:02:03;;;;;;;19.50;8.30;;;;;;;5.46;69.89;100932.19;709724;1182;115382;-75
2022/04/27 04:17:08;;;;;;;74.97;21.60;;;;;;;5.82;69.88;100951.02;709556;1183;115543;-76
2022/04/27 04:32:12;;;;;;;152.40;49.90;;;;;;;6.16;70.45;100951.66;709542;1184;115655;-76
2022/04/27 04:47:15;;;;;;;43.00;18.38;;;;;;;6.54;70.58;100969.39;709566;1182;115945;-76
2022/04/27 05:02:19;;;;;;;65.25;26.65;;;;;;;6.88;70.36;100985.60;709898;1181;115630;-76
2022/04/27 05:17:24;;;;;;;31.10;14.00;;;;;;;7.33;70.67;100999.31;709278;1184;114830;-76
2022/04/27 05:32:28;;;;;;;27.70;12.00;;;;;;;8.15;70.52;101014.95;710438;1184;115369;-75
2022/04/27 05:47:32;;;;;;;20.10;8.70;;;;;;;8.66;70.95;101044.77;710564;1183;115443;-76
2022/04/27 06:02:35;;;;;;;18.05;9.25;;;;;;;9.43;71.10;101057.75;710593;1182;114860;-79
2022/04/27 06:17:39;;;;;;;16.10;8.00;;;;;;;10.08;70.56;101058.35;710581;1183;114788;-75
2022/04/27 06:32:43;;;;;;;18.90;9.05;;;;;;;10.70;68.99;101072.12;710206;1184;114305;-79
2022/04/27 06:47:46;;;;;;;17.60;8.90;;;;;;;11.64;68.42;101077.97;710620;1182;114225;-80
2022/04/27 07:02:50;;;;;;;14.10;7.70;;;;;;;12.98;67.21;101086.31;713089;1183;115512;-78
2022/04/27 07:17:54;;;;;;;13.40;7.40;;;;;;;14.30;65.00;101097.58;714007;1183;115162;-78
2022/04/27 07:32:58;;;;;;;10.75;5.80;;;;;;;15.55;62.28;101108.09;711033;1182;114714;-80
2022/04/27 07:48:01;;;;;;;9.20;5.50;;;;;;;16.41;59.86;101125.33;710929;1181;115003;-78
2022/04/27 08:03:05;;;;;;;9.55;6.80;;;;;;;17.38;57.51;101136.73;713143;1182;115714;-81
2022/04/27 08:18:09;;;;;;;9.60;5.20;;;;;;;18.04;56.72;101131.65;711042;1184;115720;-80
2022/04/27 08:33:13;;;;;;;;;;;;;;;18.67;55.64;101139.94;710445;1183;115003;-75
2022/04/27 08:48:18;;;;;;;10.55;6.10;;;;;;;19.74;54.66;101139.64;711886;1184;101524;-73
2022/04/27 09:03:29;;;;;;;8.25;4.40;;;;;;;19.64;52.84;101157.66;710711;1182;114908;-76
2022/04/27 09:34:31;;;;;;;5.40;3.70;;;;;;;21.03;48.62;101152.30;710254;1181;115749;-76
2022/04/27 09:49:36;;;;;;;7.00;4.10;;;;;;;21.65;48.30;101149.44;709940;1182;114201;-77
2022/04/27 10:04:43;;;;;;;6.53;3.87;;;;;;;21.68;46.85;101146.38;709741;1181;114885;-78
2022/04/27 10:19:47;;;;;;;5.43;3.03;;;;;;;22.25;45.61;101144.70;712133;1181;115855;-77
2022/04/27 10:35:19;;;;;;;4.80;3.20;;;;;;;21.84;45.28;101154.19;711041;1182;114903;-76
2022/04/27 10:50:28;;;;;;;6.97;3.77;;;;;;;22.17;45.77;101144.84;709447;1184;115114;-77
2022/04/27 11:05:33;;;;;;;6.00;3.05;;;;;;;22.49;44.37;101140.00;710204;1184;115049;-76
2022/04/27 11:20:38;;;;;;;3.10;2.05;;;;;;;23.41;42.34;101132.76;710131;1181;114188;-76
2022/04/27 11:35:47;;;;;;;2.95;2.00;;;;;;;23.69;41.55;101131.82;710493;1184;115647;-77
2022/04/27 11:50:53;;;;;;;5.07;2.43;;;;;;;23.56;43.17;101129.95;709988;1183;114949;-77
2022/04/27 12:05:57;;;;;;;2.90;2.20;;;;;;;24.72;41.71;101134.23;714004;1181;116979;-76
2022/04/27 12:21:00;;;;;;;4.95;2.40;;;;;;;24.85;41.09;101113.77;709968;1183;114597;-76
2022/04/27 12:51:29;;;;;;;10.50;4.80;;;;;;;26.06;41.52;101103.32;710842;1183;115552;-74
2022/04/27 13:06:33;;;;;;;28.13;16.43;;;;;;;23.85;41.66;101098.51;709820;1182;115908;-76
2022/04/27 13:21:37;;;;;;;10.85;6.20;;;;;;;23.02;42.07;101083.38;710213;1184;116656;-79
2022/04/27 13:36:41;;;;;;;11.15;4.10;;;;;;;22.98;41.73;101080.27;710035;1183;115589;-77
2022/04/27 13:51:47;;;;;;;4.50;3.30;;;;;;;24.43;41.29;101069.26;712001;1182;115174;-77
2022/04/27 14:06:50;;;;;;;5.50;2.75;;;;;;;24.29;41.46;101064.13;710237;1182;114480;-78
2022/04/27 14:21:55;;;;;;;5.90;2.57;;;;;;;26.63;37.87;101065.56;709625;1182;114729;-77
2022/04/27 14:36:59;;;;;;;9.30;4.20;;;;;;;22.37;41.45;101059.52;709932;1181;114850;-80
2022/04/27 14:52:04;;;;;;;7.80;3.65;;;;;;;24.95;39.19;101052.45;710023;1184;114995;-79
2022/04/27 15:07:08;;;;;;;4.30;2.60;;;;;;;29.52;38.46;101059.02;709811;1183;115115;-78
2022/04/27 15:37:37;;;;;;;6.80;3.70;;;;;;;21.44;42.44;101070.94;709680;1181;115113;-81
2022/04/27 15:52:42;;;;;;;21.95;11.30;;;;;;;20.59;43.59;101081.09;709837;1184;115419;-79
2022/04/27 16:07:47;;;;;;;36.80;22.10;;;;;;;19.81;44.57;101075.91;709647;1182;115029;-80
2022/04/27 16:23:10;;;;;;;21.93;10.27;;;;;;;19.20;45.36;101089.00;710093;1182;115227;-77
2022/04/27 16:38:14;;;;;;;20.35;8.55;;;;;;;19.07;46.52;101098.37;709996;1183;114490;-81
2022/04/27 16:53:19;;;;;;;9.30;5.93;;;;;;;18.78;45.84;101106.90;709962;1182;115334;-77
2022/04/27 17:08:23;;;;;;;25.70;10.70;;;;;;;17.88;46.07;101108.54;710169;1182;114832;-81
2022/04/27 17:23:27;;;;;;;17.40;7.40;;;;;;;17.56;47.13;101127.84;711743;1183;114572;-80
2022/04/27 17:38:52;;;;;;;16.77;9.20;;;;;;;17.06;47.83;101140.86;709678;1183;115102;-81
2022/04/27 17:53:57;;;;;;;28.47;18.27;;;;;;;16.40;48.45;101160.73;709465;1181;115401;-80
2022/04/27 18:09:02;;;;;;;22.60;12.95;;;;;;;15.37;48.70;101187.35;709696;1182;115816;-82
2022/04/27 18:24:08;;;;;;;57.15;24.20;;;;;;;14.97;49.69;101205.94;709855;1184;115386;-81
2022/04/27 18:39:15;;;;;;;45.80;27.50;;;;;;;14.41;49.87;101228.59;709472;1181;116031;-83
2022/04/27 18:54:19;;;;;;;225.85;86.80;;;;;;;13.79;50.59;101251.61;709359;1182;115246;-81
2022/04/27 19:09:23;;;;;;;56.20;30.50;;;;;;;13.57;50.69;101256.10;709530;1184;115484;-81
2022/04/27 19:24:30;;;;;;;28.60;13.15;;;;;;;12.87;51.42;101261.03;709642;1182;115333;-84
2022/04/27 19:39:34;;;;;;;51.87;19.10;;;;;;;12.54;51.19;101272.53;709342;1182;115087;-83
2022/04/27 19:54:38;;;;;;;27.50;12.50;;;;;;;12.27;51.41;101285.14;709437;1181;114578;-83
2022/04/27 20:09:47;;;;;;;16.00;8.25;;;;;;;11.73;51.81;101276.17;709262;1181;114460;-83
2022/04/27 20:24:52;;;;;;;9.05;4.70;;;;;;;11.42;52.42;101288.19;710061;1184;115539;-75
2022/04/27 20:39:56;;;;;;;36.50;15.20;;;;;;;11.20;52.86;101299.46;710682;1182;115733;-74
2022/04/27 20:55:01;;;;;;;90.87;33.60;;;;;;;10.90;52.75;101316.52;710149;1184;114891;-74
2022/04/27 21:10:08;;;;;;;39.70;17.55;;;;;;;10.60;53.29;101315.19;709970;1181;115241;-75
2022/04/27 21:25:13;;;;;;;16.90;9.20;;;;;;;10.48;53.82;101336.09;710327;1182;114957;-75
2022/04/27 21:40:16;;;;;;;27.50;11.20;;;;;;;10.32;54.00;101341.55;709905;1182;115752;-75
2022/04/27 21:55:20;;;;;;;13.35;6.50;;;;;;;10.27;54.47;101350.70;710213;1181;115120;-75
2022/04/27 22:10:23;;;;;;;7.80;3.80;;;;;;;10.20;53.96;101341.56;709367;1182;115524;-75
2022/04/27 22:25:27;;;;;;;8.00;3.70;;;;;;;10.18;53.54;101338.23;709629;1184;115327;-75
2022/04/27 22:40:30;;;;;;;6.80;3.40;;;;;;;10.16;53.31;101317.34;709353;1182;115316;-75
2022/04/27 22:55:34;;;;;;;11.45;4.20;;;;;;;10.14;53.81;101324.48;709462;1182;115159;-82
2022/04/27 23:26:00;;;;;;;21.10;8.60;;;;;;;9.81;54.35;101326.70;709416;1182;114064;-84
2022/04/27 23:41:05;;;;;;;11.20;5.00;;;;;;;9.56;55.89;101329.32;709516;1183;115584;-82
2022/04/27 23:56:14;;;;;;;15.60;5.20;;;;;;;9.30;55.50;101339.73;709832;1184;114667;-84
